sensor_id;sensor_type;location;lat;lon;timestamp;P1;durP1;ratioP1;P2;durP2;ratioP2
37791;SDS011;29527;55.766;37.570;2023-03-13T00:00:09;1.85;;;0.80;;
37791;SDS011;29527;55.766;37.570;2023-03-13T00:02:36;1.42;;;0.90;;
37791;SDS011;29527;55.766;37.570;2023-03-13T00:05:01;1.52;;;0.77;;
37791;SDS011;29527;55.766;37.570;2023-03-13T00:07:28;1.85;;;0.90;;
37791;SDS011;29527;55.766;37.570;2023-03-13T00:09:53;2.30;;;0.77;;
37791;SDS011;29527;55.766;37.570;2023-03-13T00:12:18;1.35;;;0.93;;
37791;SDS011;29527;55.766;37.570;2023-03-13T00:14:44;1.45;;;0.77;;
37791;SDS011;29527;55.766;37.570;2023-03-13T00:17:09;2.75;;;0.95;;
37791;SDS011;29527;55.766;37.570;2023-03-13T00:19:35;1.35;;;1.15;;
37791;SDS011;29527;55.766;37.570;2023-03-13T00:22:00;1.63;;;1.10;;
37791;SDS011;29527;55.766;37.570;2023-03-13T00:24:26;3.38;;;0.80;;
37791;SDS011;29527;55.766;37.570;2023-03-13T00:26:51;1.95;;;0.93;;
37791;SDS011;29527;55.766;37.570;2023-03-13T00:29:16;1.15;;;0.60;;
37791;SDS011;29527;55.766;37.570;2023-03-13T00:31:42;1.40;;;0.80;;
37791;SDS011;29527;55.766;37.570;2023-03-13T00:34:07;1.67;;;0.98;;
37791;SDS011;29527;55.766;37.570;2023-03-13T00:36:33;1.98;;;0.95;;
37791;SDS011;29527;55.766;37.570;2023-03-13T00:39:00;0.98;;;0.73;;
37791;SDS011;29527;55.766;37.570;2023-03-13T00:41:27;0.68;;;0.50;;
37791;SDS011;29527;55.766;37.570;2023-03-13T00:43:54;0.85;;;0.70;;
37791;SDS011;29527;55.766;37.570;2023-03-13T00:46:21;1.48;;;0.80;;
37791;SDS011;29527;55.766;37.570;2023-03-13T00:48:48;1.50;;;0.70;;
37791;SDS011;29527;55.766;37.570;2023-03-13T00:51:15;1.08;;;0.60;;
37791;SDS011;29527;55.766;37.570;2023-03-13T00:53:41;0.85;;;0.60;;
37791;SDS011;29527;55.766;37.570;2023-03-13T00:56:08;1.75;;;0.52;;
37791;SDS011;29527;55.766;37.570;2023-03-13T00:58:37;1.83;;;0.98;;
37791;SDS011;29527;55.766;37.570;2023-03-13T01:01:07;0.57;;;0.50;;
37791;SDS011;29527;55.766;37.570;2023-03-13T01:03:35;2.35;;;0.88;;
37791;SDS011;29527;55.766;37.570;2023-03-13T01:06:01;1.42;;;0.75;;
37791;SDS011;29527;55.766;37.570;2023-03-13T01:08:29;1.20;;;0.70;;
37791;SDS011;29527;55.766;37.570;2023-03-13T01:11:29;0.82;;;0.55;;
37791;SDS011;29527;55.766;37.570;2023-03-13T01:13:48;1.23;;;0.60;;
37791;SDS011;29527;55.766;37.570;2023-03-13T01:16:18;1.08;;;0.80;;
37791;SDS011;29527;55.766;37.570;2023-03-13T01:18:46;1.33;;;0.80;;
37791;SDS011;29527;55.766;37.570;2023-03-13T01:21:13;1.30;;;0.70;;
37791;SDS011;29527;55.766;37.570;2023-03-13T01:23:39;1.08;;;0.70;;
37791;SDS011;29527;55.766;37.570;2023-03-13T01:26:06;0.77;;;0.73;;
37791;SDS011;29527;55.766;37.570;2023-03-13T01:28:33;1.95;;;0.80;;
37791;SDS011;29527;55.766;37.570;2023-03-13T01:30:59;2.83;;;0.95;;
37791;SDS011;29527;55.766;37.570;2023-03-13T01:33:34;1.23;;;0.80;;
37791;SDS011;29527;55.766;37.570;2023-03-13T01:35:59;1.13;;;0.80;;
37791;SDS011;29527;55.766;37.570;2023-03-13T01:38:26;1.92;;;1.08;;
37791;SDS011;29527;55.766;37.570;2023-03-13T01:40:52;1.98;;;0.93;;
37791;SDS011;29527;55.766;37.570;2023-03-13T01:43:24;2.60;;;0.95;;
37791;SDS011;29527;55.766;37.570;2023-03-13T01:48:50;1.23;;;0.90;;
37791;SDS011;29527;55.766;37.570;2023-03-13T01:51:24;1.58;;;0.80;;
37791;SDS011;29527;55.766;37.570;2023-03-13T01:53:55;2.10;;;0.88;;
37791;SDS011;29527;55.766;37.570;2023-03-13T01:56:31;1.17;;;0.80;;
37791;SDS011;29527;55.766;37.570;2023-03-13T01:59:02;2.30;;;0.85;;
37791;SDS011;29527;55.766;37.570;2023-03-13T02:01:30;2.17;;;0.98;;
37791;SDS011;29527;55.766;37.570;2023-03-13T02:03:56;1.10;;;0.88;;
37791;SDS011;29527;55.766;37.570;2023-03-13T02:06:23;2.10;;;0.98;;
37791;SDS011;29527;55.766;37.570;2023-03-13T02:08:53;1.15;;;0.73;;
37791;SDS011;29527;55.766;37.570;2023-03-13T02:13:59;2.83;;;0.80;;
37791;SDS011;29527;55.766;37.570;2023-03-13T02:16:27;2.15;;;0.93;;
37791;SDS011;29527;55.766;37.570;2023-03-13T02:18:53;1.42;;;1.05;;
37791;SDS011;29527;55.766;37.570;2023-03-13T02:21:24;2.95;;;1.05;;
37791;SDS011;29527;55.766;37.570;2023-03-13T02:24:17;2.15;;;1.15;;
37791;SDS011;29527;55.766;37.570;2023-03-13T02:26:56;1.00;;;0.90;;
37791;SDS011;29527;55.766;37.570;2023-03-13T02:29:21;2.33;;;1.20;;
37791;SDS011;29527;55.766;37.570;2023-03-13T02:31:49;4.55;;;0.95;;
37791;SDS011;29527;55.766;37.570;2023-03-13T02:34:16;1.50;;;0.93;;
37791;SDS011;29527;55.766;37.570;2023-03-13T02:36:46;3.65;;;1.30;;
37791;SDS011;29527;55.766;37.570;2023-03-13T02:39:13;3.35;;;1.38;;
37791;SDS011;29527;55.766;37.570;2023-03-13T02:41:42;1.52;;;1.10;;
37791;SDS011;29527;55.766;37.570;2023-03-13T02:44:10;1.42;;;1.20;;
37791;SDS011;29527;55.766;37.570;2023-03-13T02:46:46;2.95;;;1.00;;
37791;SDS011;29527;55.766;37.570;2023-03-13T02:51:54;1.67;;;0.90;;
37791;SDS011;29527;55.766;37.570;2023-03-13T02:54:32;1.63;;;1.05;;
37791;SDS011;29527;55.766;37.570;2023-03-13T02:57:02;2.20;;;1.15;;
37791;SDS011;29527;55.766;37.570;2023-03-13T02:59:28;3.25;;;1.30;;
37791;SDS011;29527;55.766;37.570;2023-03-13T03:01:54;3.08;;;0.90;;
37791;SDS011;29527;55.766;37.570;2023-03-13T03:04:23;2.03;;;1.10;;
37791;SDS011;29527;55.766;37.570;2023-03-13T03:06:50;1.67;;;1.20;;
37791;SDS011;29527;55.766;37.570;2023-03-13T03:09:17;2.63;;;1.30;;
37791;SDS011;29527;55.766;37.570;2023-03-13T03:11:43;2.33;;;1.52;;
37791;SDS011;29527;55.766;37.570;2023-03-13T03:14:09;2.35;;;1.20;;
37791;SDS011;29527;55.766;37.570;2023-03-13T03:16:36;3.28;;;1.50;;
37791;SDS011;29527;55.766;37.570;2023-03-13T03:19:02;1.33;;;1.00;;
37791;SDS011;29527;55.766;37.570;2023-03-13T03:21:28;4.45;;;1.40;;
37791;SDS011;29527;55.766;37.570;2023-03-13T03:23:54;1.55;;;1.10;;
37791;SDS011;29527;55.766;37.570;2023-03-13T03:26:20;4.10;;;1.02;;
37791;SDS011;29527;55.766;37.570;2023-03-13T03:28:45;2.75;;;1.42;;
37791;SDS011;29527;55.766;37.570;2023-03-13T03:31:12;2.35;;;0.95;;
37791;SDS011;29527;55.766;37.570;2023-03-13T03:33:38;2.55;;;1.10;;
37791;SDS011;29527;55.766;37.570;2023-03-13T03:36:05;3.70;;;1.27;;
37791;SDS011;29527;55.766;37.570;2023-03-13T03:38:42;4.13;;;1.23;;
37791;SDS011;29527;55.766;37.570;2023-03-13T03:41:08;2.22;;;1.13;;
37791;SDS011;29527;55.766;37.570;2023-03-13T03:43:36;1.85;;;1.13;;
37791;SDS011;29527;55.766;37.570;2023-03-13T03:46:01;2.90;;;1.40;;
37791;SDS011;29527;55.766;37.570;2023-03-13T03:48:27;2.67;;;1.20;;
37791;SDS011;29527;55.766;37.570;2023-03-13T03:50:52;3.38;;;1.50;;
37791;SDS011;29527;55.766;37.570;2023-03-13T03:53:18;3.70;;;1.33;;
37791;SDS011;29527;55.766;37.570;2023-03-13T03:55:43;2.03;;;1.20;;
37791;SDS011;29527;55.766;37.570;2023-03-13T03:58:09;3.50;;;1.05;;
37791;SDS011;29527;55.766;37.570;2023-03-13T04:00:34;2.85;;;1.60;;
37791;SDS011;29527;55.766;37.570;2023-03-13T04:03:00;2.35;;;1.27;;
37791;SDS011;29527;55.766;37.570;2023-03-13T04:05:26;5.50;;;1.20;;
37791;SDS011;29527;55.766;37.570;2023-03-13T04:07:51;2.75;;;1.30;;
37791;SDS011;29527;55.766;37.570;2023-03-13T04:10:16;2.63;;;1.25;;
37791;SDS011;29527;55.766;37.570;2023-03-13T04:12:42;2.47;;;1.40;;
37791;SDS011;29527;55.766;37.570;2023-03-13T04:15:08;2.55;;;1.38;;
37791;SDS011;29527;55.766;37.570;2023-03-13T04:17:34;2.50;;;1.17;;
37791;SDS011;29527;55.766;37.570;2023-03-13T04:20:00;3.30;;;1.80;;
37791;SDS011;29527;55.766;37.570;2023-03-13T04:22:26;2.80;;;1.50;;
37791;SDS011;29527;55.766;37.570;2023-03-13T04:24:52;2.17;;;1.20;;
37791;SDS011;29527;55.766;37.570;2023-03-13T04:27:18;1.77;;;1.15;;
37791;SDS011;29527;55.766;37.570;2023-03-13T04:29:44;2.08;;;1.33;;
37791;SDS011;29527;55.766;37.570;2023-03-13T04:32:10;3.17;;;1.40;;
37791;SDS011;29527;55.766;37.570;2023-03-13T04:34:36;3.22;;;1.48;;
37791;SDS011;29527;55.766;37.570;2023-03-13T04:37:01;3.13;;;1.92;;
37791;SDS011;29527;55.766;37.570;2023-03-13T04:39:26;4.50;;;0.98;;
37791;SDS011;29527;55.766;37.570;2023-03-13T04:41:53;2.15;;;1.35;;
37791;SDS011;29527;55.766;37.570;2023-03-13T04:44:19;2.28;;;1.15;;
37791;SDS011;29527;55.766;37.570;2023-03-13T04:46:45;6.00;;;0.90;;
37791;SDS011;29527;55.766;37.570;2023-03-13T04:49:11;1.92;;;0.90;;
37791;SDS011;29527;55.766;37.570;2023-03-13T04:51:38;2.35;;;1.02;;
37791;SDS011;29527;55.766;37.570;2023-03-13T04:54:05;1.92;;;1.05;;
37791;SDS011;29527;55.766;37.570;2023-03-13T04:56:30;2.00;;;1.42;;
37791;SDS011;29527;55.766;37.570;2023-03-13T04:58:56;2.75;;;1.50;;
37791;SDS011;29527;55.766;37.570;2023-03-13T05:01:21;3.05;;;1.20;;
37791;SDS011;29527;55.766;37.570;2023-03-13T05:03:47;1.77;;;1.00;;
37791;SDS011;29527;55.766;37.570;2023-03-13T05:06:12;4.25;;;1.30;;
37791;SDS011;29527;55.766;37.570;2023-03-13T05:08:38;2.42;;;1.20;;
37791;SDS011;29527;55.766;37.570;2023-03-13T05:11:03;1.90;;;1.30;;
37791;SDS011;29527;55.766;37.570;2023-03-13T05:13:29;2.95;;;1.30;;
37791;SDS011;29527;55.766;37.570;2023-03-13T05:15:55;2.17;;;1.38;;
37791;SDS011;29527;55.766;37.570;2023-03-13T05:18:21;2.85;;;1.20;;
37791;SDS011;29527;55.766;37.570;2023-03-13T05:20:46;2.50;;;1.70;;
37791;SDS011;29527;55.766;37.570;2023-03-13T05:23:12;1.73;;;1.42;;
37791;SDS011;29527;55.766;37.570;2023-03-13T05:25:38;2.60;;;1.90;;
37791;SDS011;29527;55.766;37.570;2023-03-13T05:28:03;3.00;;;1.45;;
37791;SDS011;29527;55.766;37.570;2023-03-13T05:30:29;3.42;;;1.40;;
37791;SDS011;29527;55.766;37.570;2023-03-13T05:32:54;1.77;;;1.25;;
37791;SDS011;29527;55.766;37.570;2023-03-13T05:35:20;2.53;;;1.40;;
37791;SDS011;29527;55.766;37.570;2023-03-13T05:37:46;1.52;;;1.20;;
37791;SDS011;29527;55.766;37.570;2023-03-13T05:40:11;2.00;;;1.13;;
37791;SDS011;29527;55.766;37.570;2023-03-13T05:42:38;2.88;;;1.38;;
37791;SDS011;29527;55.766;37.570;2023-03-13T05:45:04;2.30;;;1.20;;
37791;SDS011;29527;55.766;37.570;2023-03-13T05:47:30;2.20;;;1.50;;
37791;SDS011;29527;55.766;37.570;2023-03-13T05:49:56;2.22;;;1.60;;
37791;SDS011;29527;55.766;37.570;2023-03-13T05:52:21;2.22;;;1.27;;
37791;SDS011;29527;55.766;37.570;2023-03-13T05:54:47;3.72;;;1.63;;
37791;SDS011;29527;55.766;37.570;2023-03-13T05:57:12;3.00;;;1.50;;
37791;SDS011;29527;55.766;37.570;2023-03-13T05:59:38;3.05;;;1.42;;
37791;SDS011;29527;55.766;37.570;2023-03-13T06:02:03;3.00;;;1.55;;
37791;SDS011;29527;55.766;37.570;2023-03-13T06:04:29;2.55;;;1.33;;
37791;SDS011;29527;55.766;37.570;2023-03-13T06:06:54;3.17;;;1.50;;
37791;SDS011;29527;55.766;37.570;2023-03-13T06:09:20;2.83;;;1.30;;
37791;SDS011;29527;55.766;37.570;2023-03-13T06:11:45;1.77;;;1.60;;
37791;SDS011;29527;55.766;37.570;2023-03-13T06:14:11;1.75;;;1.40;;
37791;SDS011;29527;55.766;37.570;2023-03-13T06:16:36;1.73;;;1.45;;
37791;SDS011;29527;55.766;37.570;2023-03-13T06:19:02;3.10;;;1.50;;
37791;SDS011;29527;55.766;37.570;2023-03-13T06:21:27;2.40;;;1.33;;
37791;SDS011;29527;55.766;37.570;2023-03-13T06:23:53;5.22;;;1.40;;
37791;SDS011;29527;55.766;37.570;2023-03-13T06:26:20;9.45;;;2.10;;
37791;SDS011;29527;55.766;37.570;2023-03-13T06:28:45;3.97;;;1.50;;
37791;SDS011;29527;55.766;37.570;2023-03-13T06:31:12;3.42;;;2.03;;
37791;SDS011;29527;55.766;37.570;2023-03-13T06:33:38;2.63;;;1.83;;
37791;SDS011;29527;55.766;37.570;2023-03-13T06:36:03;4.55;;;2.17;;
37791;SDS011;29527;55.766;37.570;2023-03-13T06:38:29;5.20;;;2.22;;
37791;SDS011;29527;55.766;37.570;2023-03-13T06:40:55;4.47;;;2.20;;
37791;SDS011;29527;55.766;37.570;2023-03-13T06:43:21;3.00;;;2.20;;
37791;SDS011;29527;55.766;37.570;2023-03-13T06:45:46;3.55;;;2.42;;
37791;SDS011;29527;55.766;37.570;2023-03-13T06:48:12;2.88;;;2.28;;
37791;SDS011;29527;55.766;37.570;2023-03-13T06:50:38;3.20;;;2.17;;
37791;SDS011;29527;55.766;37.570;2023-03-13T06:53:04;2.47;;;2.15;;
37791;SDS011;29527;55.766;37.570;2023-03-13T06:55:29;4.18;;;2.47;;
37791;SDS011;29527;55.766;37.570;2023-03-13T06:57:55;4.68;;;1.75;;
37791;SDS011;29527;55.766;37.570;2023-03-13T07:00:20;4.63;;;1.65;;
37791;SDS011;29527;55.766;37.570;2023-03-13T07:02:46;1.80;;;1.67;;
37791;SDS011;29527;55.766;37.570;2023-03-13T07:05:12;2.95;;;1.67;;
37791;SDS011;29527;55.766;37.570;2023-03-13T07:07:39;2.75;;;1.98;;
37791;SDS011;29527;55.766;37.570;2023-03-13T07:10:05;4.55;;;2.42;;
37791;SDS011;29527;55.766;37.570;2023-03-13T07:12:32;2.60;;;2.08;;
37791;SDS011;29527;55.766;37.570;2023-03-13T07:14:59;4.32;;;2.13;;
37791;SDS011;29527;55.766;37.570;2023-03-13T07:17:25;5.25;;;2.80;;
37791;SDS011;29527;55.766;37.570;2023-03-13T07:19:50;4.10;;;2.08;;
37791;SDS011;29527;55.766;37.570;2023-03-13T07:22:15;2.92;;;1.92;;
37791;SDS011;29527;55.766;37.570;2023-03-13T07:24:41;2.92;;;2.15;;
37791;SDS011;29527;55.766;37.570;2023-03-13T07:27:06;5.53;;;2.30;;
37791;SDS011;29527;55.766;37.570;2023-03-13T07:29:32;6.72;;;2.50;;
37791;SDS011;29527;55.766;37.570;2023-03-13T07:31:57;3.30;;;1.83;;
37791;SDS011;29527;55.766;37.570;2023-03-13T07:34:23;4.40;;;2.30;;
37791;SDS011;29527;55.766;37.570;2023-03-13T07:36:48;6.68;;;2.20;;
37791;SDS011;29527;55.766;37.570;2023-03-13T07:39:14;6.78;;;2.15;;
37791;SDS011;29527;55.766;37.570;2023-03-13T07:41:39;4.20;;;2.10;;
37791;SDS011;29527;55.766;37.570;2023-03-13T07:44:06;6.10;;;1.88;;
37791;SDS011;29527;55.766;37.570;2023-03-13T07:46:31;3.92;;;2.13;;
37791;SDS011;29527;55.766;37.570;2023-03-13T07:48:57;6.07;;;2.22;;
37791;SDS011;29527;55.766;37.570;2023-03-13T07:51:23;3.15;;;1.70;;
37791;SDS011;29527;55.766;37.570;2023-03-13T07:53:50;5.80;;;2.25;;
37791;SDS011;29527;55.766;37.570;2023-03-13T07:56:17;3.20;;;1.95;;
37791;SDS011;29527;55.766;37.570;2023-03-13T07:58:46;6.70;;;1.95;;
37791;SDS011;29527;55.766;37.570;2023-03-13T08:01:16;5.53;;;1.85;;
37791;SDS011;29527;55.766;37.570;2023-03-13T08:03:44;4.60;;;2.40;;
37791;SDS011;29527;55.766;37.570;2023-03-13T08:06:11;5.50;;;2.15;;
37791;SDS011;29527;55.766;37.570;2023-03-13T08:08:39;5.65;;;1.58;;
37791;SDS011;29527;55.766;37.570;2023-03-13T08:11:06;3.75;;;1.85;;
37791;SDS011;29527;55.766;37.570;2023-03-13T08:13:33;5.75;;;1.58;;
37791;SDS011;29527;55.766;37.570;2023-03-13T08:16:04;8.85;;;2.08;;
37791;SDS011;29527;55.766;37.570;2023-03-13T08:18:32;2.83;;;1.75;;
37791;SDS011;29527;55.766;37.570;2023-03-13T08:21:07;3.92;;;1.83;;
37791;SDS011;29527;55.766;37.570;2023-03-13T08:23:34;3.63;;;1.83;;
37791;SDS011;29527;55.766;37.570;2023-03-13T08:26:04;2.95;;;1.70;;
37791;SDS011;29527;55.766;37.570;2023-03-13T08:28:36;5.88;;;1.90;;
37791;SDS011;29527;55.766;37.570;2023-03-13T08:31:22;4.07;;;1.67;;
37791;SDS011;29527;55.766;37.570;2023-03-13T08:33:52;8.27;;;1.83;;
37791;SDS011;29527;55.766;37.570;2023-03-13T08:36:24;6.85;;;1.88;;
37791;SDS011;29527;55.766;37.570;2023-03-13T08:38:52;4.80;;;2.03;;
37791;SDS011;29527;55.766;37.570;2023-03-13T08:41:20;5.53;;;1.65;;
37791;SDS011;29527;55.766;37.570;2023-03-13T08:43:47;6.93;;;1.83;;
37791;SDS011;29527;55.766;37.570;2023-03-13T08:46:14;6.78;;;2.10;;
37791;SDS011;29527;55.766;37.570;2023-03-13T08:48:40;5.43;;;1.90;;
37791;SDS011;29527;55.766;37.570;2023-03-13T08:51:07;7.85;;;1.92;;
37791;SDS011;29527;55.766;37.570;2023-03-13T08:53:34;3.45;;;1.60;;
37791;SDS011;29527;55.766;37.570;2023-03-13T08:56:01;3.30;;;1.92;;
37791;SDS011;29527;55.766;37.570;2023-03-13T08:58:28;7.47;;;2.13;;
37791;SDS011;29527;55.766;37.570;2023-03-13T09:00:59;9.57;;;3.00;;
37791;SDS011;29527;55.766;37.570;2023-03-13T09:03:30;8.13;;;1.40;;
37791;SDS011;29527;55.766;37.570;2023-03-13T09:05:56;3.42;;;1.30;;
37791;SDS011;29527;55.766;37.570;2023-03-13T09:08:23;8.35;;;1.75;;
37791;SDS011;29527;55.766;37.570;2023-03-13T09:10:53;4.60;;;1.30;;
37791;SDS011;29527;55.766;37.570;2023-03-13T09:13:30;4.32;;;1.63;;
37791;SDS011;29527;55.766;37.570;2023-03-13T09:15:57;7.80;;;1.58;;
37791;SDS011;29527;55.766;37.570;2023-03-13T09:18:24;6.03;;;1.75;;
37791;SDS011;29527;55.766;37.570;2023-03-13T09:20:50;5.07;;;1.20;;
37791;SDS011;29527;55.766;37.570;2023-03-13T09:23:16;5.22;;;1.42;;
37791;SDS011;29527;55.766;37.570;2023-03-13T09:25:41;3.70;;;1.73;;
37791;SDS011;29527;55.766;37.570;2023-03-13T09:28:07;3.13;;;1.17;;
37791;SDS011;29527;55.766;37.570;2023-03-13T09:30:32;2.53;;;1.17;;
37791;SDS011;29527;55.766;37.570;2023-03-13T09:32:58;2.95;;;1.50;;
37791;SDS011;29527;55.766;37.570;2023-03-13T09:35:23;6.40;;;1.88;;
37791;SDS011;29527;55.766;37.570;2023-03-13T09:37:48;3.13;;;1.58;;
37791;SDS011;29527;55.766;37.570;2023-03-13T09:40:14;6.47;;;1.63;;
37791;SDS011;29527;55.766;37.570;2023-03-13T09:42:49;3.00;;;1.77;;
37791;SDS011;29527;55.766;37.570;2023-03-13T09:48:44;5.18;;;1.40;;
37791;SDS011;29527;55.766;37.570;2023-03-13T09:50:58;3.13;;;1.38;;
37791;SDS011;29527;55.766;37.570;2023-03-13T09:53:34;3.30;;;1.40;;
37791;SDS011;29527;55.766;37.570;2023-03-13T09:56:06;4.22;;;1.60;;
37791;SDS011;29527;55.766;37.570;2023-03-13T09:58:54;3.80;;;1.60;;
37791;SDS011;29527;55.766;37.570;2023-03-13T10:01:27;2.72;;;1.70;;
37791;SDS011;29527;55.766;37.570;2023-03-13T10:04:04;3.85;;;1.90;;
37791;SDS011;29527;55.766;37.570;2023-03-13T10:06:39;3.63;;;1.80;;
37791;SDS011;29527;55.766;37.570;2023-03-13T10:09:15;2.22;;;1.60;;
37791;SDS011;29527;55.766;37.570;2023-03-13T10:11:43;4.18;;;1.60;;
37791;SDS011;29527;55.766;37.570;2023-03-13T10:17:39;3.67;;;2.28;;
37791;SDS011;29527;55.766;37.570;2023-03-13T10:22:55;4.15;;;2.38;;
37791;SDS011;29527;55.766;37.570;2023-03-13T10:25:31;3.92;;;1.90;;
37791;SDS011;29527;55.766;37.570;2023-03-13T10:27:59;6.90;;;2.80;;
37791;SDS011;29527;55.766;37.570;2023-03-13T10:30:26;5.57;;;2.58;;
37791;SDS011;29527;55.766;37.570;2023-03-13T10:33:17;5.35;;;1.98;;
37791;SDS011;29527;55.766;37.570;2023-03-13T10:35:44;6.90;;;1.98;;
37791;SDS011;29527;55.766;37.570;2023-03-13T10:38:10;4.32;;;2.03;;
37791;SDS011;29527;55.766;37.570;2023-03-13T10:40:36;2.90;;;1.90;;
37791;SDS011;29527;55.766;37.570;2023-03-13T10:43:03;2.88;;;1.83;;
37791;SDS011;29527;55.766;37.570;2023-03-13T10:45:43;5.45;;;1.92;;
37791;SDS011;29527;55.766;37.570;2023-03-13T10:48:19;3.10;;;1.98;;
37791;SDS011;29527;55.766;37.570;2023-03-13T10:50:50;6.15;;;1.73;;
37791;SDS011;29527;55.766;37.570;2023-03-13T10:56:18;4.60;;;2.20;;
37791;SDS011;29527;55.766;37.570;2023-03-13T10:58:44;3.17;;;1.90;;
37791;SDS011;29527;55.766;37.570;2023-03-13T11:01:39;4.35;;;2.17;;
37791;SDS011;29527;55.766;37.570;2023-03-13T11:07:35;3.95;;;2.00;;
37791;SDS011;29527;55.766;37.570;2023-03-13T11:12:50;5.20;;;2.35;;
37791;SDS011;29527;55.766;37.570;2023-03-13T11:15:24;6.45;;;2.22;;
37791;SDS011;29527;55.766;37.570;2023-03-13T11:18:27;5.95;;;2.90;;
37791;SDS011;29527;55.766;37.570;2023-03-13T11:21:00;3.47;;;2.05;;
37791;SDS011;29527;55.766;37.570;2023-03-13T11:23:29;2.90;;;1.85;;
37791;SDS011;29527;55.766;37.570;2023-03-13T11:31:35;4.70;;;1.58;;
37791;SDS011;29527;55.766;37.570;2023-03-13T11:37:07;3.08;;;2.30;;
37791;SDS011;29527;55.766;37.570;2023-03-13T12:00:57;4.03;;;1.80;;
37791;SDS011;29527;55.766;37.570;2023-03-13T12:03:33;3.25;;;1.90;;
37791;SDS011;29527;55.766;37.570;2023-03-13T12:06:03;4.78;;;2.00;;
37791;SDS011;29527;55.766;37.570;2023-03-13T12:08:41;5.50;;;1.70;;
37791;SDS011;29527;55.766;37.570;2023-03-13T12:11:22;4.80;;;1.70;;
37791;SDS011;29527;55.766;37.570;2023-03-13T12:19:16;5.68;;;1.50;;
37791;SDS011;29527;55.766;37.570;2023-03-13T12:27:35;2.35;;;1.38;;
37791;SDS011;29527;55.766;37.570;2023-03-13T12:35:51;2.63;;;1.30;;
37791;SDS011;29527;55.766;37.570;2023-03-13T12:38:40;4.68;;;1.65;;
37791;SDS011;29527;55.766;37.570;2023-03-13T12:41:17;2.08;;;1.55;;
37791;SDS011;29527;55.766;37.570;2023-03-13T12:43:46;1.98;;;1.20;;
37791;SDS011;29527;55.766;37.570;2023-03-13T12:51:24;4.63;;;1.65;;
37791;SDS011;29527;55.766;37.570;2023-03-13T12:54:27;5.05;;;1.70;;
37791;SDS011;29527;55.766;37.570;2023-03-13T13:00:35;2.97;;;1.40;;
37791;SDS011;29527;55.766;37.570;2023-03-13T13:05:37;3.33;;;1.50;;
37791;SDS011;29527;55.766;37.570;2023-03-13T13:08:03;6.22;;;1.60;;
37791;SDS011;29527;55.766;37.570;2023-03-13T13:10:29;4.13;;;1.50;;
37791;SDS011;29527;55.766;37.570;2023-03-13T13:16:20;5.15;;;1.75;;
37791;SDS011;29527;55.766;37.570;2023-03-13T13:18:30;3.97;;;1.50;;
37791;SDS011;29527;55.766;37.570;2023-03-13T13:23:26;2.67;;;1.40;;
37791;SDS011;29527;55.766;37.570;2023-03-13T13:28:48;3.78;;;1.38;;
37791;SDS011;29527;55.766;37.570;2023-03-13T13:36:55;3.20;;;1.25;;
37791;SDS011;29527;55.766;37.570;2023-03-13T13:50:38;7.07;;;1.33;;
37791;SDS011;29527;55.766;37.570;2023-03-13T13:53:22;6.82;;;1.67;;
37791;SDS011;29527;55.766;37.570;2023-03-13T13:55:55;3.38;;;1.58;;
37791;SDS011;29527;55.766;37.570;2023-03-13T13:58:29;3.10;;;1.38;;
37791;SDS011;29527;55.766;37.570;2023-03-13T14:00:59;3.88;;;1.50;;
37791;SDS011;29527;55.766;37.570;2023-03-13T14:03:31;3.95;;;1.40;;
37791;SDS011;29527;55.766;37.570;2023-03-13T14:06:01;3.75;;;1.67;;
37791;SDS011;29527;55.766;37.570;2023-03-13T14:08:38;2.53;;;1.20;;
37791;SDS011;29527;55.766;37.570;2023-03-13T14:11:18;2.63;;;1.25;;
37791;SDS011;29527;55.766;37.570;2023-03-13T14:16:33;2.35;;;1.17;;
37791;SDS011;29527;55.766;37.570;2023-03-13T14:18:58;2.00;;;1.15;;
37791;SDS011;29527;55.766;37.570;2023-03-13T14:21:24;3.55;;;1.20;;
37791;SDS011;29527;55.766;37.570;2023-03-13T14:23:51;2.55;;;0.90;;
37791;SDS011;29527;55.766;37.570;2023-03-13T14:26:18;2.25;;;1.13;;
37791;SDS011;29527;55.766;37.570;2023-03-13T14:28:47;3.28;;;1.48;;
37791;SDS011;29527;55.766;37.570;2023-03-13T14:31:22;2.50;;;1.40;;
37791;SDS011;29527;55.766;37.570;2023-03-13T14:33:48;5.50;;;1.35;;
37791;SDS011;29527;55.766;37.570;2023-03-13T14:36:14;5.45;;;1.35;;
37791;SDS011;29527;55.766;37.570;2023-03-13T14:38:46;2.33;;;0.95;;
37791;SDS011;29527;55.766;37.570;2023-03-13T14:41:21;4.32;;;1.17;;
37791;SDS011;29527;55.766;37.570;2023-03-13T14:44:15;4.65;;;1.20;;
37791;SDS011;29527;55.766;37.570;2023-03-13T14:46:47;4.10;;;1.25;;
37791;SDS011;29527;55.766;37.570;2023-03-13T14:49:18;3.70;;;0.80;;
37791;SDS011;29527;55.766;37.570;2023-03-13T14:51:49;2.65;;;1.02;;
37791;SDS011;29527;55.766;37.570;2023-03-13T14:54:26;1.83;;;1.08;;
37791;SDS011;29527;55.766;37.570;2023-03-13T14:59:42;2.30;;;0.95;;
37791;SDS011;29527;55.766;37.570;2023-03-13T15:02:26;4.50;;;0.80;;
37791;SDS011;29527;55.766;37.570;2023-03-13T15:07:26;2.58;;;1.40;;
37791;SDS011;29527;55.766;37.570;2023-03-13T15:09:59;3.20;;;1.07;;
37791;SDS011;29527;55.766;37.570;2023-03-13T15:12:25;2.30;;;1.27;;
37791;SDS011;29527;55.766;37.570;2023-03-13T15:14:51;1.83;;;1.17;;
37791;SDS011;29527;55.766;37.570;2023-03-13T15:17:24;5.22;;;1.70;;
37791;SDS011;29527;55.766;37.570;2023-03-13T15:19:59;5.00;;;1.95;;
37791;SDS011;29527;55.766;37.570;2023-03-13T15:22:31;2.40;;;1.50;;
37791;SDS011;29527;55.766;37.570;2023-03-13T15:25:02;3.13;;;1.48;;
37791;SDS011;29527;55.766;37.570;2023-03-13T15:27:28;3.33;;;1.30;;
37791;SDS011;29527;55.766;37.570;2023-03-13T15:29:54;1.75;;;1.10;;
37791;SDS011;29527;55.766;37.570;2023-03-13T15:32:26;5.00;;;1.80;;
37791;SDS011;29527;55.766;37.570;2023-03-13T15:34:54;2.13;;;1.30;;
37791;SDS011;29527;55.766;37.570;2023-03-13T15:37:26;4.20;;;1.38;;
37791;SDS011;29527;55.766;37.570;2023-03-13T15:39:53;3.22;;;1.63;;
37791;SDS011;29527;55.766;37.570;2023-03-13T15:42:20;5.38;;;2.08;;
37791;SDS011;29527;55.766;37.570;2023-03-13T15:44:46;4.45;;;1.75;;
37791;SDS011;29527;55.766;37.570;2023-03-13T15:47:16;4.18;;;1.92;;
37791;SDS011;29527;55.766;37.570;2023-03-13T15:49:44;2.50;;;1.80;;
37791;SDS011;29527;55.766;37.570;2023-03-13T15:52:13;6.05;;;1.95;;
37791;SDS011;29527;55.766;37.570;2023-03-13T15:54:47;4.45;;;2.13;;
37791;SDS011;29527;55.766;37.570;2023-03-13T15:57:14;3.17;;;1.90;;
37791;SDS011;29527;55.766;37.570;2023-03-13T15:59:42;2.28;;;1.67;;
37791;SDS011;29527;55.766;37.570;2023-03-13T16:02:29;5.10;;;2.15;;
37791;SDS011;29527;55.766;37.570;2023-03-13T16:04:54;4.18;;;1.52;;
37791;SDS011;29527;55.766;37.570;2023-03-13T16:07:20;2.78;;;1.45;;
37791;SDS011;29527;55.766;37.570;2023-03-13T16:09:45;4.80;;;2.65;;
37791;SDS011;29527;55.766;37.570;2023-03-13T16:12:11;3.38;;;1.50;;
37791;SDS011;29527;55.766;37.570;2023-03-13T16:14:37;3.28;;;1.98;;
37791;SDS011;29527;55.766;37.570;2023-03-13T16:17:09;3.15;;;1.60;;
37791;SDS011;29527;55.766;37.570;2023-03-13T16:19:38;3.03;;;1.95;;
37791;SDS011;29527;55.766;37.570;2023-03-13T16:22:03;5.60;;;2.25;;
37791;SDS011;29527;55.766;37.570;2023-03-13T16:24:29;3.03;;;1.60;;
37791;SDS011;29527;55.766;37.570;2023-03-13T16:26:54;3.13;;;1.58;;
37791;SDS011;29527;55.766;37.570;2023-03-13T16:29:20;5.63;;;1.83;;
37791;SDS011;29527;55.766;37.570;2023-03-13T16:31:45;3.50;;;1.85;;
37791;SDS011;29527;55.766;37.570;2023-03-13T16:34:10;7.53;;;1.83;;
37791;SDS011;29527;55.766;37.570;2023-03-13T16:36:36;4.07;;;1.38;;
37791;SDS011;29527;55.766;37.570;2023-03-13T16:39:03;2.40;;;1.33;;